Hg 306 Tobis — OUPS — position and weather

sailwx.info

Track history (hours):
 
Tides and Currents Weather Stations Pressure Air Temp Water Temp Dewpoint Dewpoint Depression Visibility Wind Speed Wind Dir Waves Ship Positions

Hg 306 Tobis

Last reported at 2017-Jun-28 16:00 UTC. Time now 2017-Jun-28 16:06 UTC.
Position N 58°44' E 005°08'.

Length 40 m; draft 6.4 m.

Type: Fishing. MMSI: 219013001.

Date/timePositionNaut miles runAvg speedWind from/ knotsBaromVisibWave heightAir tempDewpointWater temp
2017-Jun-28 16:00N 58°44' E 005°08'510.1
2017-Jun-28 15:30N 58°40' E 005°14'510.2
2017-Jun-28 15:00N 58°37' E 005°20'10 9.8
2017-Jun-28 14:00N 58°29' E 005°33'5 9.9
2017-Jun-28 13:30N 58°25' E 005°39'5 9.8
2017-Jun-28 13:00N 58°22' E 005°45'5 9.9
2017-Jun-28 12:31N 58°19' E 005°53'5 9.6
2017-Jun-28 12:00N 58°16' E 005°60'510.1
2017-Jun-28 11:30N 58°12' E 006°07'510.1
2017-Jun-28 11:00N 58°09' E 006°14'510.0
2017-Jun-28 10:31N 58°06' E 006°22'510.4
2017-Jun-28 10:00N 58°03' E 006°30'611.2
2017-Jun-28 09:30N 57°59' E 006°38'510.8
2017-Jun-28 09:00N 57°56' E 006°46'510.6
2017-Jun-28 08:30N 57°52' E 006°53'510.4
2017-Jun-28 08:00N 57°49' E 007°01'510.3
2017-Jun-28 07:31N 57°46' E 007°08'5 9.2
2017-Jun-28 06:59N 57°43' E 007°15'3 0.2
2017-Jun-27 16:08N 57°41' E 007°16'210.9
2017-Jun-27 16:00N 57°41' E 007°14'510.6
2017-Jun-27 15:30N 57°45' E 007°07'510.8
2017-Jun-27 15:00N 57°48' E 006°59'1110.8
2017-Jun-27 14:00N 57°55' E 006°43'511.1
2017-Jun-27 13:31N 57°59' E 006°35'611.0
2017-Jun-27 13:01N 58°02' E 006°27'611.0
2017-Jun-27 12:30N 58°05' E 006°18'611.4
2017-Jun-27 12:00N 58°09' E 006°10'611.5
2017-Jun-27 11:29N 58°12' E 006°01'511.1
2017-Jun-27 11:01N 58°16' E 005°53'611.1
2017-Jun-27 10:30N 58°19' E 005°45'611.1
2017-Jun-27 10:00N 58°23' E 005°37'611.3
2017-Jun-27 09:30N 58°27' E 005°30'511.0
2017-Jun-27 09:00N 58°31' E 005°23'611.1
2017-Jun-27 08:31N 58°36' E 005°16'510.7
2017-Jun-27 08:01N 58°40' E 005°10'510.5
2017-Jun-27 07:31N 58°44' E 005°03'510.1
2017-Jun-27 07:00N 58°47' E 004°57'4 8.3
2017-Jun-27 06:30N 58°51' E 004°52'  
2017-Jun-21 18:48N 59°13' E 004°48'310.8
2017-Jun-21 18:30N 59°10' E 004°51'510.9
2017-Jun-21 18:00N 59°05' E 004°56'510.8
2017-Jun-21 17:30N 59°01' E 005°01'511.0
2017-Jun-21 17:00N 58°56' E 005°06'510.4
2017-Jun-21 16:30N 58°52' E 005°11'510.1
2017-Jun-21 16:01N 58°47' E 005°16'510.1
2017-Jun-21 15:31N 58°43' E 005°21'510.2
2017-Jun-21 15:00N 58°38' E 005°25'10 9.9
2017-Jun-21 14:00N 58°30' E 005°35'5 9.4
2017-Jun-21 13:25N 58°25' E 005°41'4 9.8
2017-Jun-21 13:01N 58°22' E 005°45'10 9.2
2017-Jun-21 11:57N 58°14' E 005°56'4 9.7
2017-Jun-21 11:30N 58°10' E 006°00'5 9.6
2017-Jun-21 11:01N 58°06' E 006°05'510.4
2017-Jun-21 10:30N 58°01' E 006°10'5 9.6
2017-Jun-21 10:00N 57°58' E 006°16'5 9.2
2017-Jun-21 09:29N 57°55' E 006°22'4 9.1
2017-Jun-21 09:00N 57°52' E 006°29'5 9.1
2017-Jun-21 08:30N 57°50' E 006°37'  
Track history (hours):
 
Tides and Currents Weather Stations Pressure Air Temp Water Temp Dewpoint Dewpoint Depression Visibility Wind Speed Wind Dir Waves Ship Positions

Hg 306 Tobis

Last reported at 2017-Jun-28 16:00 UTC. Time now 2017-Jun-28 16:06 UTC.
Position N 58°44' E 005°08'.

Length 40 m; draft 6.4 m.

Type: Fishing. MMSI: 219013001.

Date/timePositionNaut miles runAvg speedWind from/ knotsBaromVisibWave heightAir tempDewpointWater temp
2017-Jun-28 16:00N 58°44' E 005°08'510.1
2017-Jun-28 15:30N 58°40' E 005°14'510.2
2017-Jun-28 15:00N 58°37' E 005°20'10 9.8
2017-Jun-28 14:00N 58°29' E 005°33'5 9.9
2017-Jun-28 13:30N 58°25' E 005°39'5 9.8
2017-Jun-28 13:00N 58°22' E 005°45'5 9.9
2017-Jun-28 12:31N 58°19' E 005°53'5 9.6
2017-Jun-28 12:00N 58°16' E 005°60'510.1
2017-Jun-28 11:30N 58°12' E 006°07'510.1
2017-Jun-28 11:00N 58°09' E 006°14'510.0
2017-Jun-28 10:31N 58°06' E 006°22'510.4
2017-Jun-28 10:00N 58°03' E 006°30'611.2
2017-Jun-28 09:30N 57°59' E 006°38'510.8
2017-Jun-28 09:00N 57°56' E 006°46'510.6
2017-Jun-28 08:30N 57°52' E 006°53'510.4
2017-Jun-28 08:00N 57°49' E 007°01'510.3
2017-Jun-28 07:31N 57°46' E 007°08'5 9.2
2017-Jun-28 06:59N 57°43' E 007°15'3 0.2
2017-Jun-27 16:08N 57°41' E 007°16'210.9
2017-Jun-27 16:00N 57°41' E 007°14'510.6
2017-Jun-27 15:30N 57°45' E 007°07'510.8
2017-Jun-27 15:00N 57°48' E 006°59'1110.8
2017-Jun-27 14:00N 57°55' E 006°43'511.1
2017-Jun-27 13:31N 57°59' E 006°35'611.0
2017-Jun-27 13:01N 58°02' E 006°27'611.0
2017-Jun-27 12:30N 58°05' E 006°18'611.4
2017-Jun-27 12:00N 58°09' E 006°10'611.5
2017-Jun-27 11:29N 58°12' E 006°01'511.1
2017-Jun-27 11:01N 58°16' E 005°53'611.1
2017-Jun-27 10:30N 58°19' E 005°45'611.1
2017-Jun-27 10:00N 58°23' E 005°37'611.3
2017-Jun-27 09:30N 58°27' E 005°30'511.0
2017-Jun-27 09:00N 58°31' E 005°23'611.1
2017-Jun-27 08:31N 58°36' E 005°16'510.7
2017-Jun-27 08:01N 58°40' E 005°10'510.5
2017-Jun-27 07:31N 58°44' E 005°03'510.1
2017-Jun-27 07:00N 58°47' E 004°57'4 8.3
2017-Jun-27 06:30N 58°51' E 004°52'  
2017-Jun-21 18:48N 59°13' E 004°48'310.8
2017-Jun-21 18:30N 59°10' E 004°51'510.9
2017-Jun-21 18:00N 59°05' E 004°56'510.8
2017-Jun-21 17:30N 59°01' E 005°01'511.0
2017-Jun-21 17:00N 58°56' E 005°06'510.4
2017-Jun-21 16:30N 58°52' E 005°11'510.1
2017-Jun-21 16:01N 58°47' E 005°16'510.1
2017-Jun-21 15:31N 58°43' E 005°21'510.2
2017-Jun-21 15:00N 58°38' E 005°25'10 9.9
2017-Jun-21 14:00N 58°30' E 005°35'5 9.4
2017-Jun-21 13:25N 58°25' E 005°41'4 9.8
2017-Jun-21 13:01N 58°22' E 005°45'10 9.2
2017-Jun-21 11:57N 58°14' E 005°56'4 9.7
2017-Jun-21 11:30N 58°10' E 006°00'5 9.6
2017-Jun-21 11:01N 58°06' E 006°05'510.4
2017-Jun-21 10:30N 58°01' E 006°10'5 9.6
2017-Jun-21 10:00N 57°58' E 006°16'5 9.2
2017-Jun-21 09:29N 57°55' E 006°22'4 9.1
2017-Jun-21 09:00N 57°52' E 006°29'5 9.1
2017-Jun-21 08:30N 57°50' E 006°37'  

Dump ship's entire track history